sensor_id;sensor_type;location;lat;lon;timestamp;P1;durP1;ratioP1;P2;durP2;ratioP2
18647;SDS011;9453;50.294;18.644;2023-07-09T04:02:36;11.13;;;6.60;;
18647;SDS011;9453;50.294;18.644;2023-07-09T04:05:04;9.88;;;5.78;;
18647;SDS011;9453;50.294;18.644;2023-07-09T04:07:31;13.07;;;6.97;;
18647;SDS011;9453;50.294;18.644;2023-07-09T04:09:58;13.45;;;6.25;;
18647;SDS011;9453;50.294;18.644;2023-07-09T04:12:26;10.30;;;6.63;;
18647;SDS011;9453;50.294;18.644;2023-07-09T04:14:53;10.68;;;6.43;;
18647;SDS011;9453;50.294;18.644;2023-07-09T04:17:20;13.85;;;7.78;;
18647;SDS011;9453;50.294;18.644;2023-07-09T04:19:50;11.05;;;6.22;;
18647;SDS011;9453;50.294;18.644;2023-07-09T04:22:17;13.02;;;6.70;;
18647;SDS011;9453;50.294;18.644;2023-07-09T04:24:44;11.30;;;6.35;;
18647;SDS011;9453;50.294;18.644;2023-07-09T04:27:12;11.18;;;5.93;;
18647;SDS011;9453;50.294;18.644;2023-07-09T04:29:39;10.05;;;5.68;;
18647;SDS011;9453;50.294;18.644;2023-07-09T04:32:07;9.55;;;5.95;;
18647;SDS011;9453;50.294;18.644;2023-07-09T04:34:38;10.77;;;5.78;;
18647;SDS011;9453;50.294;18.644;2023-07-09T04:37:07;11.13;;;5.75;;
18647;SDS011;9453;50.294;18.644;2023-07-09T04:39:36;10.60;;;6.03;;
18647;SDS011;9453;50.294;18.644;2023-07-09T04:42:04;12.10;;;6.78;;
18647;SDS011;9453;50.294;18.644;2023-07-09T04:44:32;10.38;;;5.50;;
18647;SDS011;9453;50.294;18.644;2023-07-09T04:46:59;10.98;;;5.93;;
18647;SDS011;9453;50.294;18.644;2023-07-09T04:49:26;8.55;;;5.22;;
18647;SDS011;9453;50.294;18.644;2023-07-09T04:51:53;9.23;;;5.28;;
18647;SDS011;9453;50.294;18.644;2023-07-09T04:54:23;9.30;;;5.63;;
18647;SDS011;9453;50.294;18.644;2023-07-09T04:56:50;9.13;;;5.20;;
18647;SDS011;9453;50.294;18.644;2023-07-09T04:59:18;11.43;;;5.28;;
18647;SDS011;9453;50.294;18.644;2023-07-09T05:01:45;11.88;;;6.93;;
18647;SDS011;9453;50.294;18.644;2023-07-09T05:04:12;10.40;;;5.90;;
18647;SDS011;9453;50.294;18.644;2023-07-09T05:06:39;9.48;;;5.60;;
18647;SDS011;9453;50.294;18.644;2023-07-09T05:09:06;11.68;;;6.03;;
18647;SDS011;9453;50.294;18.644;2023-07-09T05:11:35;8.95;;;5.30;;
18647;SDS011;9453;50.294;18.644;2023-07-09T05:14:02;9.27;;;5.20;;
18647;SDS011;9453;50.294;18.644;2023-07-09T05:16:30;7.30;;;4.40;;
18647;SDS011;9453;50.294;18.644;2023-07-09T05:18:57;8.68;;;4.25;;
18647;SDS011;9453;50.294;18.644;2023-07-09T05:21:23;12.85;;;6.65;;
18647;SDS011;9453;50.294;18.644;2023-07-09T05:23:50;8.32;;;5.50;;
18647;SDS011;9453;50.294;18.644;2023-07-09T05:26:17;11.90;;;5.63;;
18647;SDS011;9453;50.294;18.644;2023-07-09T05:28:45;9.10;;;4.72;;
18647;SDS011;9453;50.294;18.644;2023-07-09T05:31:12;8.55;;;5.05;;
18647;SDS011;9453;50.294;18.644;2023-07-09T05:33:40;9.20;;;5.07;;
18647;SDS011;9453;50.294;18.644;2023-07-09T05:36:07;8.73;;;4.88;;
18647;SDS011;9453;50.294;18.644;2023-07-09T05:38:38;5.47;;;4.03;;
18647;SDS011;9453;50.294;18.644;2023-07-09T05:41:05;5.80;;;4.07;;
18647;SDS011;9453;50.294;18.644;2023-07-09T05:43:33;7.13;;;3.97;;
18647;SDS011;9453;50.294;18.644;2023-07-09T05:46:02;6.05;;;4.28;;
18647;SDS011;9453;50.294;18.644;2023-07-09T05:48:31;7.00;;;4.55;;
18647;SDS011;9453;50.294;18.644;2023-07-09T05:50:58;6.47;;;3.83;;
18647;SDS011;9453;50.294;18.644;2023-07-09T05:53:25;6.20;;;3.65;;
18647;SDS011;9453;50.294;18.644;2023-07-09T05:55:52;5.85;;;3.80;;
18647;SDS011;9453;50.294;18.644;2023-07-09T05:58:20;6.45;;;3.83;;
18647;SDS011;9453;50.294;18.644;2023-07-09T06:00:49;6.82;;;4.20;;
18647;SDS011;9453;50.294;18.644;2023-07-09T06:03:20;8.45;;;4.30;;
18647;SDS011;9453;50.294;18.644;2023-07-09T06:05:48;6.88;;;4.22;;
18647;SDS011;9453;50.294;18.644;2023-07-09T06:08:15;6.57;;;4.05;;
18647;SDS011;9453;50.294;18.644;2023-07-09T06:10:49;8.38;;;4.93;;
18647;SDS011;9453;50.294;18.644;2023-07-09T06:13:18;7.97;;;4.88;;
18647;SDS011;9453;50.294;18.644;2023-07-09T06:15:45;6.68;;;4.63;;
18647;SDS011;9453;50.294;18.644;2023-07-09T06:18:13;7.63;;;4.40;;
18647;SDS011;9453;50.294;18.644;2023-07-09T06:20:41;6.82;;;4.40;;
18647;SDS011;9453;50.294;18.644;2023-07-09T06:23:13;5.90;;;3.80;;
18647;SDS011;9453;50.294;18.644;2023-07-09T06:25:40;6.40;;;3.92;;
18647;SDS011;9453;50.294;18.644;2023-07-09T06:28:08;5.97;;;3.95;;
18647;SDS011;9453;50.294;18.644;2023-07-09T06:30:35;6.85;;;4.55;;
18647;SDS011;9453;50.294;18.644;2023-07-09T06:33:02;6.47;;;4.50;;
18647;SDS011;9453;50.294;18.644;2023-07-09T06:35:29;10.15;;;4.93;;
18647;SDS011;9453;50.294;18.644;2023-07-09T06:37:57;7.40;;;4.00;;
18647;SDS011;9453;50.294;18.644;2023-07-09T06:40:24;8.43;;;5.35;;
18647;SDS011;9453;50.294;18.644;2023-07-09T06:42:51;7.85;;;5.05;;
18647;SDS011;9453;50.294;18.644;2023-07-09T06:45:18;8.05;;;4.30;;
18647;SDS011;9453;50.294;18.644;2023-07-09T06:47:46;5.88;;;4.05;;
18647;SDS011;9453;50.294;18.644;2023-07-09T06:50:14;6.53;;;4.18;;
18647;SDS011;9453;50.294;18.644;2023-07-09T06:52:41;5.55;;;3.67;;
18647;SDS011;9453;50.294;18.644;2023-07-09T06:55:10;7.15;;;4.07;;
18647;SDS011;9453;50.294;18.644;2023-07-09T06:57:37;4.22;;;3.30;;
18647;SDS011;9453;50.294;18.644;2023-07-09T07:00:05;7.10;;;3.67;;
18647;SDS011;9453;50.294;18.644;2023-07-09T07:02:33;5.10;;;3.58;;
18647;SDS011;9453;50.294;18.644;2023-07-09T07:05:00;5.47;;;3.22;;
18647;SDS011;9453;50.294;18.644;2023-07-09T07:07:27;4.70;;;2.90;;
18647;SDS011;9453;50.294;18.644;2023-07-09T07:09:54;4.15;;;2.75;;
18647;SDS011;9453;50.294;18.644;2023-07-09T07:12:25;4.47;;;2.65;;
18647;SDS011;9453;50.294;18.644;2023-07-09T07:14:53;5.72;;;4.05;;
18647;SDS011;9453;50.294;18.644;2023-07-09T07:17:21;5.10;;;3.40;;
18647;SDS011;9453;50.294;18.644;2023-07-09T07:19:49;4.60;;;3.20;;
18647;SDS011;9453;50.294;18.644;2023-07-09T07:22:16;5.78;;;3.17;;
18647;SDS011;9453;50.294;18.644;2023-07-09T07:24:43;5.55;;;3.13;;
18647;SDS011;9453;50.294;18.644;2023-07-09T07:27:10;5.13;;;3.00;;
18647;SDS011;9453;50.294;18.644;2023-07-09T07:29:38;6.03;;;2.75;;
18647;SDS011;9453;50.294;18.644;2023-07-09T07:32:06;4.88;;;2.95;;
18647;SDS011;9453;50.294;18.644;2023-07-09T07:34:33;4.43;;;2.90;;
18647;SDS011;9453;50.294;18.644;2023-07-09T07:37:00;4.95;;;2.95;;
18647;SDS011;9453;50.294;18.644;2023-07-09T07:39:27;6.28;;;3.40;;
18647;SDS011;9453;50.294;18.644;2023-07-09T07:41:54;7.07;;;3.42;;
18647;SDS011;9453;50.294;18.644;2023-07-09T07:44:21;4.57;;;3.00;;
18647;SDS011;9453;50.294;18.644;2023-07-09T07:46:50;6.05;;;3.63;;
18647;SDS011;9453;50.294;18.644;2023-07-09T07:49:17;5.22;;;3.35;;
18647;SDS011;9453;50.294;18.644;2023-07-09T07:51:44;4.75;;;3.05;;
18647;SDS011;9453;50.294;18.644;2023-07-09T07:54:11;4.40;;;2.63;;
18647;SDS011;9453;50.294;18.644;2023-07-09T07:56:38;4.38;;;2.90;;
18647;SDS011;9453;50.294;18.644;2023-07-09T07:59:05;7.00;;;2.80;;
18647;SDS011;9453;50.294;18.644;2023-07-09T08:01:32;2.97;;;2.17;;
18647;SDS011;9453;50.294;18.644;2023-07-09T08:04:01;4.32;;;2.85;;
18647;SDS011;9453;50.294;18.644;2023-07-09T08:06:28;4.75;;;2.92;;
18647;SDS011;9453;50.294;18.644;2023-07-09T08:08:56;7.28;;;2.83;;
18647;SDS011;9453;50.294;18.644;2023-07-09T08:11:24;7.75;;;3.22;;
18647;SDS011;9453;50.294;18.644;2023-07-09T08:13:53;4.80;;;2.90;;
18647;SDS011;9453;50.294;18.644;2023-07-09T08:16:20;3.97;;;2.83;;
18647;SDS011;9453;50.294;18.644;2023-07-09T08:18:47;4.57;;;2.70;;
18647;SDS011;9453;50.294;18.644;2023-07-09T08:21:18;5.68;;;2.78;;
18647;SDS011;9453;50.294;18.644;2023-07-09T08:23:45;3.97;;;2.70;;
18647;SDS011;9453;50.294;18.644;2023-07-09T08:26:12;3.60;;;2.55;;
18647;SDS011;9453;50.294;18.644;2023-07-09T08:28:39;7.82;;;2.97;;
18647;SDS011;9453;50.294;18.644;2023-07-09T08:31:06;4.47;;;2.85;;
18647;SDS011;9453;50.294;18.644;2023-07-09T08:33:34;5.05;;;2.85;;
18647;SDS011;9453;50.294;18.644;2023-07-09T08:36:01;4.22;;;2.70;;
18647;SDS011;9453;50.294;18.644;2023-07-09T08:38:30;3.20;;;2.33;;
18647;SDS011;9453;50.294;18.644;2023-07-09T08:40:59;4.25;;;2.50;;
18647;SDS011;9453;50.294;18.644;2023-07-09T08:43:32;5.82;;;3.05;;
18647;SDS011;9453;50.294;18.644;2023-07-09T08:46:02;6.50;;;2.63;;
18647;SDS011;9453;50.294;18.644;2023-07-09T08:48:37;3.38;;;2.20;;
18647;SDS011;9453;50.294;18.644;2023-07-09T08:51:10;4.18;;;2.47;;
18647;SDS011;9453;50.294;18.644;2023-07-09T08:53:44;2.67;;;1.90;;
18647;SDS011;9453;50.294;18.644;2023-07-09T08:56:15;3.28;;;2.35;;
18647;SDS011;9453;50.294;18.644;2023-07-09T08:58:43;2.88;;;2.45;;
18647;SDS011;9453;50.294;18.644;2023-07-09T09:01:14;3.42;;;2.40;;
18647;SDS011;9453;50.294;18.644;2023-07-09T09:03:46;3.22;;;2.30;;
18647;SDS011;9453;50.294;18.644;2023-07-09T09:06:17;4.47;;;2.63;;
18647;SDS011;9453;50.294;18.644;2023-07-09T09:08:50;4.95;;;2.50;;
18647;SDS011;9453;50.294;18.644;2023-07-09T09:11:25;5.28;;;3.00;;
18647;SDS011;9453;50.294;18.644;2023-07-09T09:14:01;6.28;;;2.60;;
18647;SDS011;9453;50.294;18.644;2023-07-09T09:16:44;8.27;;;2.67;;
18647;SDS011;9453;50.294;18.644;2023-07-09T09:19:14;3.85;;;2.83;;
18647;SDS011;9453;50.294;18.644;2023-07-09T09:21:46;4.50;;;2.72;;
18647;SDS011;9453;50.294;18.644;2023-07-09T09:24:19;3.72;;;2.72;;
18647;SDS011;9453;50.294;18.644;2023-07-09T09:26:49;3.80;;;2.70;;
18647;SDS011;9453;50.294;18.644;2023-07-09T09:29:19;4.97;;;2.88;;
18647;SDS011;9453;50.294;18.644;2023-07-09T09:31:48;3.05;;;2.67;;
18647;SDS011;9453;50.294;18.644;2023-07-09T09:34:20;3.65;;;2.88;;
18647;SDS011;9453;50.294;18.644;2023-07-09T09:36:49;5.10;;;2.40;;
18647;SDS011;9453;50.294;18.644;2023-07-09T09:39:16;4.68;;;2.92;;
18647;SDS011;9453;50.294;18.644;2023-07-09T09:41:45;6.13;;;3.20;;
18647;SDS011;9453;50.294;18.644;2023-07-09T09:44:23;4.55;;;2.83;;
18647;SDS011;9453;50.294;18.644;2023-07-09T09:46:52;5.72;;;2.70;;
18647;SDS011;9453;50.294;18.644;2023-07-09T09:49:19;6.20;;;2.75;;
18647;SDS011;9453;50.294;18.644;2023-07-09T09:51:46;5.38;;;3.20;;
18647;SDS011;9453;50.294;18.644;2023-07-09T09:54:16;4.10;;;2.75;;
18647;SDS011;9453;50.294;18.644;2023-07-09T09:56:47;4.97;;;3.45;;
18647;SDS011;9453;50.294;18.644;2023-07-09T09:59:19;3.15;;;2.78;;
18647;SDS011;9453;50.294;18.644;2023-07-09T10:01:47;3.95;;;2.72;;
18647;SDS011;9453;50.294;18.644;2023-07-09T10:04:23;3.25;;;2.60;;
18647;SDS011;9453;50.294;18.644;2023-07-09T10:06:52;4.10;;;3.00;;
18647;SDS011;9453;50.294;18.644;2023-07-09T10:09:25;5.70;;;2.80;;
18647;SDS011;9453;50.294;18.644;2023-07-09T10:12:08;6.38;;;2.90;;
18647;SDS011;9453;50.294;18.644;2023-07-09T10:14:41;6.88;;;3.05;;
18647;SDS011;9453;50.294;18.644;2023-07-09T10:17:15;4.07;;;3.17;;
18647;SDS011;9453;50.294;18.644;2023-07-09T10:19:49;5.07;;;3.20;;
18647;SDS011;9453;50.294;18.644;2023-07-09T10:22:31;3.30;;;2.83;;
18647;SDS011;9453;50.294;18.644;2023-07-09T10:25:09;3.95;;;3.05;;
18647;SDS011;9453;50.294;18.644;2023-07-09T10:27:47;6.35;;;3.08;;
18647;SDS011;9453;50.294;18.644;2023-07-09T10:30:30;6.85;;;3.17;;
18647;SDS011;9453;50.294;18.644;2023-07-09T10:33:08;4.60;;;2.95;;
18647;SDS011;9453;50.294;18.644;2023-07-09T10:35:37;3.83;;;2.95;;
18647;SDS011;9453;50.294;18.644;2023-07-09T10:38:10;5.25;;;2.90;;
18647;SDS011;9453;50.294;18.644;2023-07-09T10:40:48;9.10;;;3.53;;
18647;SDS011;9453;50.294;18.644;2023-07-09T10:43:20;4.85;;;3.35;;
18647;SDS011;9453;50.294;18.644;2023-07-09T10:45:56;5.05;;;3.20;;
18647;SDS011;9453;50.294;18.644;2023-07-09T10:48:30;10.00;;;3.35;;
18647;SDS011;9453;50.294;18.644;2023-07-09T10:51:00;3.53;;;2.90;;
18647;SDS011;9453;50.294;18.644;2023-07-09T10:53:29;4.53;;;3.00;;
18647;SDS011;9453;50.294;18.644;2023-07-09T10:56:04;4.93;;;3.30;;
18647;SDS011;9453;50.294;18.644;2023-07-09T10:58:39;6.05;;;3.22;;
18647;SDS011;9453;50.294;18.644;2023-07-09T11:01:13;5.68;;;3.38;;
18647;SDS011;9453;50.294;18.644;2023-07-09T11:03:42;6.43;;;2.92;;
18647;SDS011;9453;50.294;18.644;2023-07-09T11:06:16;4.20;;;2.95;;
18647;SDS011;9453;50.294;18.644;2023-07-09T11:08:47;4.75;;;3.08;;
18647;SDS011;9453;50.294;18.644;2023-07-09T11:11:21;5.35;;;3.40;;
18647;SDS011;9453;50.294;18.644;2023-07-09T11:13:56;4.10;;;3.00;;
18647;SDS011;9453;50.294;18.644;2023-07-09T11:16:27;3.83;;;2.90;;
18647;SDS011;9453;50.294;18.644;2023-07-09T11:18:58;4.82;;;2.97;;
18647;SDS011;9453;50.294;18.644;2023-07-09T11:21:27;4.28;;;3.45;;
18647;SDS011;9453;50.294;18.644;2023-07-09T11:23:55;3.22;;;2.80;;
18647;SDS011;9453;50.294;18.644;2023-07-09T11:26:25;5.47;;;3.40;;
18647;SDS011;9453;50.294;18.644;2023-07-09T11:28:54;7.07;;;3.35;;
18647;SDS011;9453;50.294;18.644;2023-07-09T11:31:36;5.78;;;3.65;;
18647;SDS011;9453;50.294;18.644;2023-07-09T11:34:07;4.43;;;2.97;;
18647;SDS011;9453;50.294;18.644;2023-07-09T11:36:46;7.32;;;3.20;;
18647;SDS011;9453;50.294;18.644;2023-07-09T11:39:21;5.97;;;2.90;;
18647;SDS011;9453;50.294;18.644;2023-07-09T11:41:53;4.10;;;3.00;;
18647;SDS011;9453;50.294;18.644;2023-07-09T11:44:22;7.55;;;3.35;;
18647;SDS011;9453;50.294;18.644;2023-07-09T11:49:47;4.78;;;3.60;;
18647;SDS011;9453;50.294;18.644;2023-07-09T11:52:19;6.72;;;3.28;;
18647;SDS011;9453;50.294;18.644;2023-07-09T11:54:52;4.70;;;3.55;;
18647;SDS011;9453;50.294;18.644;2023-07-09T11:57:19;3.95;;;3.03;;
18647;SDS011;9453;50.294;18.644;2023-07-09T11:59:47;7.03;;;3.83;;
18647;SDS011;9453;50.294;18.644;2023-07-09T12:02:18;4.40;;;3.17;;
18647;SDS011;9453;50.294;18.644;2023-07-09T12:04:48;4.82;;;3.50;;
18647;SDS011;9453;50.294;18.644;2023-07-09T12:07:16;4.00;;;2.78;;
18647;SDS011;9453;50.294;18.644;2023-07-09T12:09:46;3.90;;;3.00;;
18647;SDS011;9453;50.294;18.644;2023-07-09T12:12:19;4.65;;;3.20;;
18647;SDS011;9453;50.294;18.644;2023-07-09T12:14:49;4.95;;;3.08;;
18647;SDS011;9453;50.294;18.644;2023-07-09T12:17:16;4.53;;;3.10;;
18647;SDS011;9453;50.294;18.644;2023-07-09T12:19:43;4.65;;;3.00;;
18647;SDS011;9453;50.294;18.644;2023-07-09T12:22:17;3.88;;;3.15;;
18647;SDS011;9453;50.294;18.644;2023-07-09T12:24:46;4.72;;;3.03;;
18647;SDS011;9453;50.294;18.644;2023-07-09T12:27:20;6.40;;;3.33;;
18647;SDS011;9453;50.294;18.644;2023-07-09T12:29:49;3.40;;;2.80;;
18647;SDS011;9453;50.294;18.644;2023-07-09T12:32:17;5.95;;;3.05;;
18647;SDS011;9453;50.294;18.644;2023-07-09T12:34:50;3.75;;;2.83;;
18647;SDS011;9453;50.294;18.644;2023-07-09T12:37:18;5.20;;;3.05;;
18647;SDS011;9453;50.294;18.644;2023-07-09T12:39:48;4.50;;;3.00;;
18647;SDS011;9453;50.294;18.644;2023-07-09T12:42:17;4.60;;;2.70;;
18647;SDS011;9453;50.294;18.644;2023-07-09T12:44:50;3.75;;;3.03;;
18647;SDS011;9453;50.294;18.644;2023-07-09T12:47:18;4.47;;;3.17;;
18647;SDS011;9453;50.294;18.644;2023-07-09T12:49:46;7.43;;;3.33;;
18647;SDS011;9453;50.294;18.644;2023-07-09T12:52:17;5.13;;;3.28;;
18647;SDS011;9453;50.294;18.644;2023-07-09T12:54:52;5.95;;;3.30;;
18647;SDS011;9453;50.294;18.644;2023-07-09T12:57:22;6.00;;;3.10;;
18647;SDS011;9453;50.294;18.644;2023-07-09T12:59:51;4.90;;;3.47;;
18647;SDS011;9453;50.294;18.644;2023-07-09T13:02:21;3.47;;;2.95;;
18647;SDS011;9453;50.294;18.644;2023-07-09T13:04:49;4.60;;;3.28;;
18647;SDS011;9453;50.294;18.644;2023-07-09T13:07:26;5.70;;;3.00;;
18647;SDS011;9453;50.294;18.644;2023-07-09T13:09:56;4.15;;;2.97;;
18647;SDS011;9453;50.294;18.644;2023-07-09T13:12:30;3.40;;;2.97;;
18647;SDS011;9453;50.294;18.644;2023-07-09T13:15:00;4.97;;;3.17;;
18647;SDS011;9453;50.294;18.644;2023-07-09T13:17:29;5.03;;;3.25;;
18647;SDS011;9453;50.294;18.644;2023-07-09T13:19:57;4.35;;;3.05;;
18647;SDS011;9453;50.294;18.644;2023-07-09T13:22:24;4.72;;;2.90;;
18647;SDS011;9453;50.294;18.644;2023-07-09T13:24:51;5.35;;;3.17;;
18647;SDS011;9453;50.294;18.644;2023-07-09T13:27:18;4.47;;;2.80;;
18647;SDS011;9453;50.294;18.644;2023-07-09T13:29:46;6.55;;;3.20;;
18647;SDS011;9453;50.294;18.644;2023-07-09T13:32:14;3.85;;;3.00;;
18647;SDS011;9453;50.294;18.644;2023-07-09T13:34:42;7.57;;;3.45;;
18647;SDS011;9453;50.294;18.644;2023-07-09T13:37:11;4.45;;;3.15;;
18647;SDS011;9453;50.294;18.644;2023-07-09T13:39:39;5.90;;;2.80;;
18647;SDS011;9453;50.294;18.644;2023-07-09T13:42:09;4.00;;;3.15;;
18647;SDS011;9453;50.294;18.644;2023-07-09T13:44:38;4.25;;;3.03;;
18647;SDS011;9453;50.294;18.644;2023-07-09T13:47:08;3.72;;;2.70;;
18647;SDS011;9453;50.294;18.644;2023-07-09T13:49:42;3.55;;;2.90;;
18647;SDS011;9453;50.294;18.644;2023-07-09T13:52:13;3.65;;;2.72;;
18647;SDS011;9453;50.294;18.644;2023-07-09T13:54:42;4.15;;;3.22;;
18647;SDS011;9453;50.294;18.644;2023-07-09T13:57:28;3.90;;;2.97;;
18647;SDS011;9453;50.294;18.644;2023-07-09T13:59:55;4.47;;;2.97;;
18647;SDS011;9453;50.294;18.644;2023-07-09T14:02:23;3.92;;;3.05;;
18647;SDS011;9453;50.294;18.644;2023-07-09T14:04:56;7.40;;;3.20;;
18647;SDS011;9453;50.294;18.644;2023-07-09T14:07:25;4.35;;;2.80;;
18647;SDS011;9453;50.294;18.644;2023-07-09T14:09:54;4.68;;;3.20;;
18647;SDS011;9453;50.294;18.644;2023-07-09T14:12:22;4.60;;;2.85;;
18647;SDS011;9453;50.294;18.644;2023-07-09T14:14:51;4.20;;;2.88;;
18647;SDS011;9453;50.294;18.644;2023-07-09T14:17:19;4.53;;;2.97;;
18647;SDS011;9453;50.294;18.644;2023-07-09T14:19:47;4.45;;;3.13;;
18647;SDS011;9453;50.294;18.644;2023-07-09T14:22:20;4.05;;;3.15;;
18647;SDS011;9453;50.294;18.644;2023-07-09T14:24:50;4.60;;;3.05;;
18647;SDS011;9453;50.294;18.644;2023-07-09T14:27:17;6.22;;;3.03;;
18647;SDS011;9453;50.294;18.644;2023-07-09T14:29:44;4.78;;;3.22;;
18647;SDS011;9453;50.294;18.644;2023-07-09T14:32:23;4.43;;;3.00;;
18647;SDS011;9453;50.294;18.644;2023-07-09T14:34:58;3.95;;;2.88;;
18647;SDS011;9453;50.294;18.644;2023-07-09T14:37:25;4.78;;;2.75;;
18647;SDS011;9453;50.294;18.644;2023-07-09T14:39:53;6.00;;;2.85;;
18647;SDS011;9453;50.294;18.644;2023-07-09T14:42:20;5.15;;;3.10;;
18647;SDS011;9453;50.294;18.644;2023-07-09T14:44:48;3.97;;;2.97;;
18647;SDS011;9453;50.294;18.644;2023-07-09T14:47:16;6.70;;;3.03;;
18647;SDS011;9453;50.294;18.644;2023-07-09T14:49:45;8.40;;;3.00;;
18647;SDS011;9453;50.294;18.644;2023-07-09T14:52:13;3.85;;;2.97;;
18647;SDS011;9453;50.294;18.644;2023-07-09T14:54:43;4.15;;;3.03;;
18647;SDS011;9453;50.294;18.644;2023-07-09T14:57:16;4.47;;;3.25;;
18647;SDS011;9453;50.294;18.644;2023-07-09T14:59:45;3.65;;;2.80;;
18647;SDS011;9453;50.294;18.644;2023-07-09T15:02:20;5.05;;;3.30;;
18647;SDS011;9453;50.294;18.644;2023-07-09T15:04:50;5.68;;;3.28;;
18647;SDS011;9453;50.294;18.644;2023-07-09T15:07:17;5.80;;;2.83;;
18647;SDS011;9453;50.294;18.644;2023-07-09T15:09:44;4.40;;;3.20;;
18647;SDS011;9453;50.294;18.644;2023-07-09T15:12:18;4.75;;;3.33;;
18647;SDS011;9453;50.294;18.644;2023-07-09T15:14:48;4.10;;;2.80;;
18647;SDS011;9453;50.294;18.644;2023-07-09T15:17:15;3.20;;;2.83;;
18647;SDS011;9453;50.294;18.644;2023-07-09T15:19:42;4.00;;;3.05;;
18647;SDS011;9453;50.294;18.644;2023-07-09T15:22:16;4.38;;;3.05;;
18647;SDS011;9453;50.294;18.644;2023-07-09T15:24:52;3.85;;;3.30;;
18647;SDS011;9453;50.294;18.644;2023-07-09T15:27:19;6.32;;;3.45;;
18647;SDS011;9453;50.294;18.644;2023-07-09T15:29:46;4.60;;;2.95;;
18647;SDS011;9453;50.294;18.644;2023-07-09T15:32:13;4.47;;;3.35;;
18647;SDS011;9453;50.294;18.644;2023-07-09T15:34:39;4.20;;;3.03;;
18647;SDS011;9453;50.294;18.644;2023-07-09T15:37:09;4.47;;;3.13;;
18647;SDS011;9453;50.294;18.644;2023-07-09T15:39:42;4.07;;;3.13;;
18647;SDS011;9453;50.294;18.644;2023-07-09T15:42:10;8.75;;;3.22;;
18647;SDS011;9453;50.294;18.644;2023-07-09T15:44:37;4.57;;;3.10;;
18647;SDS011;9453;50.294;18.644;2023-07-09T15:47:04;5.03;;;3.05;;
18647;SDS011;9453;50.294;18.644;2023-07-09T15:49:40;3.25;;;2.70;;
18647;SDS011;9453;50.294;18.644;2023-07-09T15:52:07;3.22;;;2.72;;
18647;SDS011;9453;50.294;18.644;2023-07-09T15:54:35;5.10;;;2.97;;
18647;SDS011;9453;50.294;18.644;2023-07-09T15:57:04;5.78;;;3.05;;
18647;SDS011;9453;50.294;18.644;2023-07-09T15:59:33;4.65;;;2.97;;
18647;SDS011;9453;50.294;18.644;2023-07-09T16:02:02;5.60;;;2.60;;
18647;SDS011;9453;50.294;18.644;2023-07-09T16:04:35;6.18;;;3.28;;
18647;SDS011;9453;50.294;18.644;2023-07-09T16:07:02;4.03;;;2.83;;
18647;SDS011;9453;50.294;18.644;2023-07-09T16:09:29;8.40;;;3.05;;
18647;SDS011;9453;50.294;18.644;2023-07-09T16:11:57;5.10;;;2.72;;
18647;SDS011;9453;50.294;18.644;2023-07-09T16:14:25;3.28;;;2.92;;
18647;SDS011;9453;50.294;18.644;2023-07-09T16:16:54;4.20;;;3.20;;
18647;SDS011;9453;50.294;18.644;2023-07-09T16:19:23;11.13;;;3.00;;
18647;SDS011;9453;50.294;18.644;2023-07-09T16:21:52;5.00;;;3.10;;
18647;SDS011;9453;50.294;18.644;2023-07-09T16:24:21;6.30;;;2.95;;
18647;SDS011;9453;50.294;18.644;2023-07-09T16:26:52;4.93;;;3.10;;
18647;SDS011;9453;50.294;18.644;2023-07-09T16:29:21;3.88;;;2.63;;
18647;SDS011;9453;50.294;18.644;2023-07-09T16:31:52;6.25;;;3.28;;
18647;SDS011;9453;50.294;18.644;2023-07-09T16:34:20;5.30;;;3.08;;
18647;SDS011;9453;50.294;18.644;2023-07-09T16:36:48;8.85;;;2.92;;
18647;SDS011;9453;50.294;18.644;2023-07-09T16:39:25;6.57;;;2.72;;
18647;SDS011;9453;50.294;18.644;2023-07-09T16:41:54;5.10;;;2.92;;
18647;SDS011;9453;50.294;18.644;2023-07-09T16:44:22;4.85;;;2.97;;
18647;SDS011;9453;50.294;18.644;2023-07-09T16:46:49;3.85;;;2.60;;
18647;SDS011;9453;50.294;18.644;2023-07-09T16:52:02;4.40;;;2.65;;
18647;SDS011;9453;50.294;18.644;2023-07-09T16:54:34;6.43;;;2.85;;
18647;SDS011;9453;50.294;18.644;2023-07-09T16:57:02;4.03;;;3.00;;
18647;SDS011;9453;50.294;18.644;2023-07-09T16:59:29;4.00;;;2.85;;
18647;SDS011;9453;50.294;18.644;2023-07-09T17:01:56;5.13;;;3.08;;
18647;SDS011;9453;50.294;18.644;2023-07-09T17:04:23;5.53;;;3.10;;
18647;SDS011;9453;50.294;18.644;2023-07-09T17:06:53;4.15;;;2.67;;
18647;SDS011;9453;50.294;18.644;2023-07-09T17:09:21;6.90;;;2.85;;
18647;SDS011;9453;50.294;18.644;2023-07-09T17:11:51;5.38;;;2.97;;
18647;SDS011;9453;50.294;18.644;2023-07-09T17:14:22;4.43;;;3.00;;
18647;SDS011;9453;50.294;18.644;2023-07-09T17:16:49;3.90;;;2.97;;
18647;SDS011;9453;50.294;18.644;2023-07-09T17:19:16;7.78;;;2.83;;
18647;SDS011;9453;50.294;18.644;2023-07-09T17:21:44;3.95;;;2.70;;
18647;SDS011;9453;50.294;18.644;2023-07-09T17:24:19;3.30;;;2.47;;
18647;SDS011;9453;50.294;18.644;2023-07-09T17:26:48;4.30;;;2.92;;
18647;SDS011;9453;50.294;18.644;2023-07-09T17:29:16;5.00;;;3.03;;
18647;SDS011;9453;50.294;18.644;2023-07-09T17:31:44;8.25;;;3.30;;
18647;SDS011;9453;50.294;18.644;2023-07-09T17:34:12;8.88;;;2.72;;
18647;SDS011;9453;50.294;18.644;2023-07-09T17:36:39;5.35;;;3.00;;
18647;SDS011;9453;50.294;18.644;2023-07-09T17:39:11;7.53;;;3.03;;
18647;SDS011;9453;50.294;18.644;2023-07-09T17:41:45;3.95;;;3.13;;
18647;SDS011;9453;50.294;18.644;2023-07-09T17:44:15;5.18;;;3.53;;
18647;SDS011;9453;50.294;18.644;2023-07-09T17:46:43;8.57;;;3.17;;
18647;SDS011;9453;50.294;18.644;2023-07-09T17:49:12;8.35;;;3.17;;
18647;SDS011;9453;50.294;18.644;2023-07-09T17:51:43;5.78;;;3.25;;
18647;SDS011;9453;50.294;18.644;2023-07-09T17:54:13;6.25;;;3.50;;
18647;SDS011;9453;50.294;18.644;2023-07-09T17:56:41;6.45;;;3.28;;
18647;SDS011;9453;50.294;18.644;2023-07-09T17:59:12;6.63;;;2.97;;
18647;SDS011;9453;50.294;18.644;2023-07-09T18:01:41;4.45;;;3.05;;
18647;SDS011;9453;50.294;18.644;2023-07-09T18:04:13;3.67;;;2.65;;
18647;SDS011;9453;50.294;18.644;2023-07-09T18:06:44;4.07;;;2.45;;
18647;SDS011;9453;50.294;18.644;2023-07-09T18:09:14;3.10;;;2.30;;
18647;SDS011;9453;50.294;18.644;2023-07-09T18:11:42;5.53;;;2.45;;
18647;SDS011;9453;50.294;18.644;2023-07-09T18:14:17;3.83;;;2.83;;
18647;SDS011;9453;50.294;18.644;2023-07-09T18:16:46;5.20;;;2.95;;
18647;SDS011;9453;50.294;18.644;2023-07-09T18:19:18;4.88;;;2.50;;
18647;SDS011;9453;50.294;18.644;2023-07-09T18:21:48;4.70;;;2.95;;
18647;SDS011;9453;50.294;18.644;2023-07-09T18:24:15;6.97;;;2.72;;
18647;SDS011;9453;50.294;18.644;2023-07-09T18:26:44;3.80;;;2.65;;
18647;SDS011;9453;50.294;18.644;2023-07-09T18:29:19;4.07;;;3.17;;
18647;SDS011;9453;50.294;18.644;2023-07-09T18:31:51;4.07;;;2.83;;
18647;SDS011;9453;50.294;18.644;2023-07-09T18:34:18;4.53;;;3.20;;
18647;SDS011;9453;50.294;18.644;2023-07-09T18:36:45;3.97;;;2.72;;
18647;SDS011;9453;50.294;18.644;2023-07-09T18:39:12;4.45;;;2.92;;
18647;SDS011;9453;50.294;18.644;2023-07-09T18:41:40;5.10;;;3.03;;
18647;SDS011;9453;50.294;18.644;2023-07-09T18:44:14;7.57;;;2.97;;
18647;SDS011;9453;50.294;18.644;2023-07-09T18:46:43;4.20;;;2.60;;
18647;SDS011;9453;50.294;18.644;2023-07-09T18:49:11;3.45;;;2.72;;
18647;SDS011;9453;50.294;18.644;2023-07-09T18:51:38;4.32;;;2.10;;
18647;SDS011;9453;50.294;18.644;2023-07-09T18:54:08;3.92;;;2.22;;
18647;SDS011;9453;50.294;18.644;2023-07-09T18:56:41;2.03;;;1.80;;
18647;SDS011;9453;50.294;18.644;2023-07-09T18:59:12;2.47;;;1.92;;
18647;SDS011;9453;50.294;18.644;2023-07-09T19:01:41;3.25;;;2.10;;
18647;SDS011;9453;50.294;18.644;2023-07-09T19:04:13;3.83;;;2.20;;
18647;SDS011;9453;50.294;18.644;2023-07-09T19:06:43;3.15;;;1.90;;